Flugplatz Weimar-Umpferstedt

Für EDOU sind keine METAR/TAF Berichte vorhanden.
Es werden die Flugwettermeldungen vom Flugplatz Erfurt in 30 km Entfernung angezeigt.

Bericht für EDDE

vom 25.01. um 23:20 UTC

Wind 3 kt aus 180°

Sichtweite 100 m

Code: FZFG

Temperatur -3.0°C

Taupunkt -3.0°C

Luftfeuchtigkeit 100%

Luftdruck 1019 hPa

EDDE 252320Z 18003KT 0100 R28/0500N FZFG VV/// M03/M03 Q1019

Prognose für EDDE

vom 25.01. um 00:00 UTC

Zwischen 00:00 UTC und 00:00 UTC

Wind 5 kt aus 230°

Sichtweite 100 m

Code: FZFG

bedeckt in 100 ft


Zwischen 00:00 UTC und 00:00 UTC zeitweise

Sichtweite 2000 m

feuchter Dunst

aufgebrochene Bewölkung in 200 ft


Zwischen 00:00 und 00:00 UTC übergehend zu

Wind 5 kt aus 230°

Sichtweite 6000 m

keine signifikanten Wettererscheinungen

aufgelockert bewölkt in 1200 ft


Zwischen 00:00 UTC und 00:00 UTC zeitweise mit einer Wahrscheinlichkeit von 30%

Sichtweite 4000 m

feuchter Dunst

TAF EDDE 252300Z 2600/2624 23005KT 0100 FZFG OVC001 TEMPO 2600/2608 2000 BR BKN002 BECMG 2608/2612 6000 NSW SCT012 PROB30 TEMPO 2621/2624 4000 BR
Impressum